sensor_id;sensor_type;location;lat;lon;timestamp;P1;durP1;ratioP1;P2;durP2;ratioP2
16824;SDS011;8529;48.108;-1.706;2023-08-08T00:01:07;3.22;;;1.63;;
16824;SDS011;8529;48.108;-1.706;2023-08-08T00:03:36;4.57;;;2.05;;
16824;SDS011;8529;48.108;-1.706;2023-08-08T00:06:03;5.45;;;1.52;;
16824;SDS011;8529;48.108;-1.706;2023-08-08T00:08:30;8.05;;;2.63;;
16824;SDS011;8529;48.108;-1.706;2023-08-08T00:10:57;4.88;;;2.13;;
16824;SDS011;8529;48.108;-1.706;2023-08-08T00:13:25;3.70;;;1.52;;
16824;SDS011;8529;48.108;-1.706;2023-08-08T00:15:52;3.58;;;1.60;;
16824;SDS011;8529;48.108;-1.706;2023-08-08T00:18:19;4.32;;;1.50;;
16824;SDS011;8529;48.108;-1.706;2023-08-08T00:20:47;7.85;;;2.28;;
16824;SDS011;8529;48.108;-1.706;2023-08-08T00:23:15;3.80;;;1.80;;
16824;SDS011;8529;48.108;-1.706;2023-08-08T00:25:42;4.95;;;1.67;;
16824;SDS011;8529;48.108;-1.706;2023-08-08T00:28:09;6.20;;;2.47;;
16824;SDS011;8529;48.108;-1.706;2023-08-08T00:30:36;3.22;;;1.70;;
16824;SDS011;8529;48.108;-1.706;2023-08-08T00:33:03;5.90;;;1.88;;
16824;SDS011;8529;48.108;-1.706;2023-08-08T00:35:31;5.03;;;1.80;;
16824;SDS011;8529;48.108;-1.706;2023-08-08T00:37:59;6.75;;;1.95;;
16824;SDS011;8529;48.108;-1.706;2023-08-08T00:40:26;3.75;;;1.70;;
16824;SDS011;8529;48.108;-1.706;2023-08-08T00:42:54;6.28;;;1.80;;
16824;SDS011;8529;48.108;-1.706;2023-08-08T00:45:21;3.13;;;1.80;;
16824;SDS011;8529;48.108;-1.706;2023-08-08T00:47:49;4.18;;;1.88;;
16824;SDS011;8529;48.108;-1.706;2023-08-08T00:50:16;4.38;;;1.75;;
16824;SDS011;8529;48.108;-1.706;2023-08-08T00:52:44;2.47;;;1.85;;
16824;SDS011;8529;48.108;-1.706;2023-08-08T00:55:12;3.00;;;1.40;;
16824;SDS011;8529;48.108;-1.706;2023-08-08T00:57:40;8.40;;;1.63;;
16824;SDS011;8529;48.108;-1.706;2023-08-08T01:00:08;6.43;;;2.00;;
16824;SDS011;8529;48.108;-1.706;2023-08-08T01:02:35;4.80;;;2.30;;
16824;SDS011;8529;48.108;-1.706;2023-08-08T01:05:02;4.50;;;1.70;;
16824;SDS011;8529;48.108;-1.706;2023-08-08T01:07:31;4.70;;;1.88;;
16824;SDS011;8529;48.108;-1.706;2023-08-08T01:10:00;3.50;;;1.92;;
16824;SDS011;8529;48.108;-1.706;2023-08-08T01:12:33;3.13;;;1.85;;
16824;SDS011;8529;48.108;-1.706;2023-08-08T01:15:02;5.45;;;1.85;;
16824;SDS011;8529;48.108;-1.706;2023-08-08T01:17:31;3.65;;;1.88;;
16824;SDS011;8529;48.108;-1.706;2023-08-08T01:19:58;7.80;;;2.30;;
16824;SDS011;8529;48.108;-1.706;2023-08-08T01:22:27;6.45;;;2.10;;
16824;SDS011;8529;48.108;-1.706;2023-08-08T01:24:58;7.20;;;2.20;;
16824;SDS011;8529;48.108;-1.706;2023-08-08T01:27:26;3.47;;;1.65;;
16824;SDS011;8529;48.108;-1.706;2023-08-08T01:29:53;6.05;;;2.00;;
16824;SDS011;8529;48.108;-1.706;2023-08-08T01:32:21;6.28;;;2.47;;
16824;SDS011;8529;48.108;-1.706;2023-08-08T01:34:48;6.50;;;2.03;;
16824;SDS011;8529;48.108;-1.706;2023-08-08T01:37:17;3.53;;;1.70;;
16824;SDS011;8529;48.108;-1.706;2023-08-08T01:39:46;4.90;;;1.60;;
16824;SDS011;8529;48.108;-1.706;2023-08-08T01:42:14;3.53;;;1.85;;
16824;SDS011;8529;48.108;-1.706;2023-08-08T01:44:42;4.50;;;1.90;;
16824;SDS011;8529;48.108;-1.706;2023-08-08T01:47:09;3.15;;;1.50;;
16824;SDS011;8529;48.108;-1.706;2023-08-08T01:49:37;3.30;;;1.85;;
16824;SDS011;8529;48.108;-1.706;2023-08-08T01:52:04;4.60;;;1.80;;
16824;SDS011;8529;48.108;-1.706;2023-08-08T01:54:32;2.92;;;1.60;;
16824;SDS011;8529;48.108;-1.706;2023-08-08T01:56:59;4.38;;;1.92;;
16824;SDS011;8529;48.108;-1.706;2023-08-08T01:59:27;3.53;;;1.83;;
16824;SDS011;8529;48.108;-1.706;2023-08-08T02:01:54;7.68;;;1.95;;
16824;SDS011;8529;48.108;-1.706;2023-08-08T02:04:22;4.80;;;1.73;;
16824;SDS011;8529;48.108;-1.706;2023-08-08T02:06:49;2.65;;;1.35;;
16824;SDS011;8529;48.108;-1.706;2023-08-08T02:09:16;2.42;;;1.90;;
16824;SDS011;8529;48.108;-1.706;2023-08-08T02:11:43;2.45;;;1.73;;
16824;SDS011;8529;48.108;-1.706;2023-08-08T02:14:10;5.70;;;2.30;;
16824;SDS011;8529;48.108;-1.706;2023-08-08T02:16:39;6.70;;;1.67;;
16824;SDS011;8529;48.108;-1.706;2023-08-08T02:19:07;5.68;;;1.95;;
16824;SDS011;8529;48.108;-1.706;2023-08-08T02:21:34;3.30;;;1.60;;
16824;SDS011;8529;48.108;-1.706;2023-08-08T02:24:01;4.68;;;1.58;;
16824;SDS011;8529;48.108;-1.706;2023-08-08T02:26:29;4.80;;;1.92;;
16824;SDS011;8529;48.108;-1.706;2023-08-08T02:28:56;6.68;;;2.42;;
16824;SDS011;8529;48.108;-1.706;2023-08-08T02:31:23;3.47;;;1.85;;
16824;SDS011;8529;48.108;-1.706;2023-08-08T02:33:52;4.70;;;2.30;;
16824;SDS011;8529;48.108;-1.706;2023-08-08T02:36:19;5.35;;;2.10;;
16824;SDS011;8529;48.108;-1.706;2023-08-08T02:38:47;7.18;;;2.53;;
16824;SDS011;8529;48.108;-1.706;2023-08-08T02:41:14;4.68;;;2.10;;
16824;SDS011;8529;48.108;-1.706;2023-08-08T02:43:42;5.32;;;1.80;;
16824;SDS011;8529;48.108;-1.706;2023-08-08T02:46:10;4.28;;;2.50;;
16824;SDS011;8529;48.108;-1.706;2023-08-08T02:48:37;4.10;;;2.03;;
16824;SDS011;8529;48.108;-1.706;2023-08-08T02:51:06;5.78;;;2.20;;
16824;SDS011;8529;48.108;-1.706;2023-08-08T02:53:33;4.43;;;2.42;;
16824;SDS011;8529;48.108;-1.706;2023-08-08T02:56:00;4.25;;;1.90;;
16824;SDS011;8529;48.108;-1.706;2023-08-08T02:58:27;4.68;;;2.25;;
16824;SDS011;8529;48.108;-1.706;2023-08-08T03:00:54;4.07;;;1.88;;
16824;SDS011;8529;48.108;-1.706;2023-08-08T03:03:21;6.88;;;2.28;;
16824;SDS011;8529;48.108;-1.706;2023-08-08T03:05:49;6.88;;;2.08;;
16824;SDS011;8529;48.108;-1.706;2023-08-08T03:08:18;6.45;;;2.40;;
16824;SDS011;8529;48.108;-1.706;2023-08-08T03:10:45;6.72;;;2.38;;
16824;SDS011;8529;48.108;-1.706;2023-08-08T03:13:12;7.85;;;2.42;;
16824;SDS011;8529;48.108;-1.706;2023-08-08T03:15:39;4.25;;;1.55;;
16824;SDS011;8529;48.108;-1.706;2023-08-08T03:18:06;4.63;;;2.45;;
16824;SDS011;8529;48.108;-1.706;2023-08-08T03:20:34;3.67;;;2.00;;
16824;SDS011;8529;48.108;-1.706;2023-08-08T03:23:02;3.90;;;1.90;;
16824;SDS011;8529;48.108;-1.706;2023-08-08T03:25:31;4.80;;;2.20;;
16824;SDS011;8529;48.108;-1.706;2023-08-08T03:27:58;6.38;;;2.03;;
16824;SDS011;8529;48.108;-1.706;2023-08-08T03:30:25;3.72;;;1.70;;
16824;SDS011;8529;48.108;-1.706;2023-08-08T03:32:52;8.93;;;2.15;;
16824;SDS011;8529;48.108;-1.706;2023-08-08T03:35:19;6.85;;;1.95;;
16824;SDS011;8529;48.108;-1.706;2023-08-08T03:37:46;5.10;;;1.90;;
16824;SDS011;8529;48.108;-1.706;2023-08-08T03:40:14;3.47;;;2.00;;
16824;SDS011;8529;48.108;-1.706;2023-08-08T03:42:42;4.10;;;1.73;;
16824;SDS011;8529;48.108;-1.706;2023-08-08T03:45:10;5.82;;;2.65;;
16824;SDS011;8529;48.108;-1.706;2023-08-08T03:47:37;3.28;;;1.90;;
16824;SDS011;8529;48.108;-1.706;2023-08-08T03:50:06;4.40;;;1.95;;
16824;SDS011;8529;48.108;-1.706;2023-08-08T03:52:35;4.00;;;1.70;;
16824;SDS011;8529;48.108;-1.706;2023-08-08T03:55:03;3.45;;;1.92;;
16824;SDS011;8529;48.108;-1.706;2023-08-08T03:57:30;7.07;;;2.72;;
16824;SDS011;8529;48.108;-1.706;2023-08-08T03:59:59;5.13;;;1.95;;
16824;SDS011;8529;48.108;-1.706;2023-08-08T04:02:26;7.20;;;2.03;;
16824;SDS011;8529;48.108;-1.706;2023-08-08T04:04:53;7.32;;;3.03;;
16824;SDS011;8529;48.108;-1.706;2023-08-08T04:07:21;5.47;;;1.80;;
16824;SDS011;8529;48.108;-1.706;2023-08-08T04:09:48;4.63;;;1.80;;
16824;SDS011;8529;48.108;-1.706;2023-08-08T04:12:15;4.38;;;1.90;;
16824;SDS011;8529;48.108;-1.706;2023-08-08T04:14:42;4.00;;;1.90;;
16824;SDS011;8529;48.108;-1.706;2023-08-08T04:17:11;6.13;;;2.10;;
16824;SDS011;8529;48.108;-1.706;2023-08-08T04:19:38;6.95;;;2.17;;
16824;SDS011;8529;48.108;-1.706;2023-08-08T04:22:05;6.40;;;2.08;;
16824;SDS011;8529;48.108;-1.706;2023-08-08T04:24:32;4.53;;;2.15;;
16824;SDS011;8529;48.108;-1.706;2023-08-08T04:26:59;4.30;;;2.83;;
16824;SDS011;8529;48.108;-1.706;2023-08-08T04:29:26;6.55;;;2.00;;
16824;SDS011;8529;48.108;-1.706;2023-08-08T04:31:54;3.83;;;2.15;;
16824;SDS011;8529;48.108;-1.706;2023-08-08T04:34:22;8.45;;;2.55;;
16824;SDS011;8529;48.108;-1.706;2023-08-08T04:36:49;4.13;;;2.33;;
16824;SDS011;8529;48.108;-1.706;2023-08-08T04:39:16;6.30;;;2.03;;
16824;SDS011;8529;48.108;-1.706;2023-08-08T04:41:44;5.38;;;2.38;;
16824;SDS011;8529;48.108;-1.706;2023-08-08T04:44:11;2.92;;;1.83;;
16824;SDS011;8529;48.108;-1.706;2023-08-08T04:46:38;5.13;;;2.25;;
16824;SDS011;8529;48.108;-1.706;2023-08-08T04:49:05;7.20;;;2.50;;
16824;SDS011;8529;48.108;-1.706;2023-08-08T04:51:34;4.43;;;2.17;;
16824;SDS011;8529;48.108;-1.706;2023-08-08T04:54:01;4.93;;;2.30;;
16824;SDS011;8529;48.108;-1.706;2023-08-08T04:56:28;3.30;;;2.10;;
16824;SDS011;8529;48.108;-1.706;2023-08-08T04:58:55;6.00;;;2.70;;
16824;SDS011;8529;48.108;-1.706;2023-08-08T05:01:22;3.60;;;1.73;;
16824;SDS011;8529;48.108;-1.706;2023-08-08T05:03:49;3.92;;;2.25;;
16824;SDS011;8529;48.108;-1.706;2023-08-08T05:06:16;8.18;;;2.60;;
16824;SDS011;8529;48.108;-1.706;2023-08-08T05:08:45;3.08;;;1.95;;
16824;SDS011;8529;48.108;-1.706;2023-08-08T05:11:12;3.92;;;2.42;;
16824;SDS011;8529;48.108;-1.706;2023-08-08T05:13:39;5.82;;;2.25;;
16824;SDS011;8529;48.108;-1.706;2023-08-08T05:16:07;7.32;;;2.42;;
16824;SDS011;8529;48.108;-1.706;2023-08-08T05:18:35;4.60;;;2.15;;
16824;SDS011;8529;48.108;-1.706;2023-08-08T05:21:02;4.43;;;2.20;;
16824;SDS011;8529;48.108;-1.706;2023-08-08T05:23:29;6.65;;;2.72;;
16824;SDS011;8529;48.108;-1.706;2023-08-08T05:25:58;5.03;;;2.40;;
16824;SDS011;8529;48.108;-1.706;2023-08-08T05:28:25;4.45;;;2.33;;
16824;SDS011;8529;48.108;-1.706;2023-08-08T05:30:52;6.60;;;2.40;;
16824;SDS011;8529;48.108;-1.706;2023-08-08T05:33:19;3.42;;;2.10;;
16824;SDS011;8529;48.108;-1.706;2023-08-08T05:35:46;7.70;;;3.10;;
16824;SDS011;8529;48.108;-1.706;2023-08-08T05:38:13;3.85;;;2.40;;
16824;SDS011;8529;48.108;-1.706;2023-08-08T05:40:41;7.32;;;2.83;;
16824;SDS011;8529;48.108;-1.706;2023-08-08T05:43:09;10.07;;;3.35;;
16824;SDS011;8529;48.108;-1.706;2023-08-08T05:45:41;6.90;;;2.83;;
16824;SDS011;8529;48.108;-1.706;2023-08-08T05:48:09;7.13;;;3.17;;
16824;SDS011;8529;48.108;-1.706;2023-08-08T05:50:37;7.72;;;3.00;;
16824;SDS011;8529;48.108;-1.706;2023-08-08T05:53:04;7.55;;;3.70;;
16824;SDS011;8529;48.108;-1.706;2023-08-08T05:55:31;6.63;;;3.00;;
16824;SDS011;8529;48.108;-1.706;2023-08-08T05:57:59;7.90;;;3.22;;
16824;SDS011;8529;48.108;-1.706;2023-08-08T06:00:27;11.20;;;3.58;;
16824;SDS011;8529;48.108;-1.706;2023-08-08T06:02:55;6.40;;;3.45;;
16824;SDS011;8529;48.108;-1.706;2023-08-08T06:05:22;6.88;;;2.97;;
16824;SDS011;8529;48.108;-1.706;2023-08-08T06:07:49;14.63;;;3.72;;
16824;SDS011;8529;48.108;-1.706;2023-08-08T06:10:16;8.27;;;3.53;;
16824;SDS011;8529;48.108;-1.706;2023-08-08T06:12:44;5.95;;;3.28;;
16824;SDS011;8529;48.108;-1.706;2023-08-08T06:15:11;8.10;;;2.92;;
16824;SDS011;8529;48.108;-1.706;2023-08-08T06:17:39;7.40;;;3.03;;
16824;SDS011;8529;48.108;-1.706;2023-08-08T06:20:07;6.45;;;2.97;;
16824;SDS011;8529;48.108;-1.706;2023-08-08T06:22:36;9.93;;;3.20;;
16824;SDS011;8529;48.108;-1.706;2023-08-08T06:25:04;7.85;;;2.78;;
16824;SDS011;8529;48.108;-1.706;2023-08-08T06:27:31;5.72;;;2.88;;
16824;SDS011;8529;48.108;-1.706;2023-08-08T06:29:58;6.10;;;3.17;;
16824;SDS011;8529;48.108;-1.706;2023-08-08T06:32:25;6.07;;;2.78;;
16824;SDS011;8529;48.108;-1.706;2023-08-08T06:34:54;10.23;;;3.92;;
16824;SDS011;8529;48.108;-1.706;2023-08-08T06:37:21;7.43;;;3.25;;
16824;SDS011;8529;48.108;-1.706;2023-08-08T06:39:48;6.82;;;3.15;;
16824;SDS011;8529;48.108;-1.706;2023-08-08T06:42:15;8.55;;;3.25;;
16824;SDS011;8529;48.108;-1.706;2023-08-08T06:44:43;7.35;;;3.40;;
16824;SDS011;8529;48.108;-1.706;2023-08-08T06:47:10;5.05;;;3.13;;
16824;SDS011;8529;48.108;-1.706;2023-08-08T06:49:38;8.45;;;2.97;;
16824;SDS011;8529;48.108;-1.706;2023-08-08T06:52:07;7.68;;;3.13;;
16824;SDS011;8529;48.108;-1.706;2023-08-08T06:54:34;9.00;;;3.65;;
16824;SDS011;8529;48.108;-1.706;2023-08-08T06:57:01;6.45;;;3.35;;
16824;SDS011;8529;48.108;-1.706;2023-08-08T06:59:29;8.02;;;3.67;;
16824;SDS011;8529;48.108;-1.706;2023-08-08T07:01:56;9.93;;;4.07;;
16824;SDS011;8529;48.108;-1.706;2023-08-08T07:04:23;8.32;;;4.32;;
16824;SDS011;8529;48.108;-1.706;2023-08-08T07:06:51;5.55;;;3.20;;
16824;SDS011;8529;48.108;-1.706;2023-08-08T07:09:19;9.60;;;3.97;;
16824;SDS011;8529;48.108;-1.706;2023-08-08T07:11:47;6.45;;;2.83;;
16824;SDS011;8529;48.108;-1.706;2023-08-08T07:14:14;6.20;;;3.15;;
16824;SDS011;8529;48.108;-1.706;2023-08-08T07:16:41;6.53;;;2.97;;
16824;SDS011;8529;48.108;-1.706;2023-08-08T07:19:08;4.43;;;3.10;;
16824;SDS011;8529;48.108;-1.706;2023-08-08T07:21:36;4.45;;;3.20;;
16824;SDS011;8529;48.108;-1.706;2023-08-08T07:24:04;6.47;;;2.92;;
16824;SDS011;8529;48.108;-1.706;2023-08-08T07:26:32;4.97;;;2.88;;
16824;SDS011;8529;48.108;-1.706;2023-08-08T07:28:59;9.32;;;3.00;;
16824;SDS011;8529;48.108;-1.706;2023-08-08T07:31:26;6.15;;;2.80;;
16824;SDS011;8529;48.108;-1.706;2023-08-08T07:33:54;7.35;;;3.13;;
16824;SDS011;8529;48.108;-1.706;2023-08-08T07:36:21;8.40;;;3.40;;
16824;SDS011;8529;48.108;-1.706;2023-08-08T07:38:48;6.40;;;2.47;;
16824;SDS011;8529;48.108;-1.706;2023-08-08T07:41:15;5.20;;;2.63;;
16824;SDS011;8529;48.108;-1.706;2023-08-08T07:43:44;3.80;;;2.70;;
16824;SDS011;8529;48.108;-1.706;2023-08-08T07:46:11;7.15;;;2.78;;
16824;SDS011;8529;48.108;-1.706;2023-08-08T07:48:39;7.18;;;3.17;;
16824;SDS011;8529;48.108;-1.706;2023-08-08T07:51:06;5.35;;;3.15;;
16824;SDS011;8529;48.108;-1.706;2023-08-08T07:53:33;5.13;;;2.10;;
16824;SDS011;8529;48.108;-1.706;2023-08-08T07:56:01;4.53;;;2.38;;
16824;SDS011;8529;48.108;-1.706;2023-08-08T07:58:28;5.10;;;2.70;;
16824;SDS011;8529;48.108;-1.706;2023-08-08T08:00:56;6.95;;;2.28;;
16824;SDS011;8529;48.108;-1.706;2023-08-08T08:03:25;4.38;;;2.28;;
16824;SDS011;8529;48.108;-1.706;2023-08-08T08:05:52;6.53;;;3.00;;
16824;SDS011;8529;48.108;-1.706;2023-08-08T08:08:19;4.00;;;2.63;;
16824;SDS011;8529;48.108;-1.706;2023-08-08T08:10:47;5.28;;;2.05;;
16824;SDS011;8529;48.108;-1.706;2023-08-08T08:13:16;5.65;;;2.47;;
16824;SDS011;8529;48.108;-1.706;2023-08-08T08:15:43;7.55;;;3.13;;
16824;SDS011;8529;48.108;-1.706;2023-08-08T08:18:11;5.28;;;2.20;;
16824;SDS011;8529;48.108;-1.706;2023-08-08T08:20:41;4.10;;;2.25;;
16824;SDS011;8529;48.108;-1.706;2023-08-08T08:23:09;6.15;;;2.58;;
16824;SDS011;8529;48.108;-1.706;2023-08-08T08:25:36;3.78;;;2.13;;
16824;SDS011;8529;48.108;-1.706;2023-08-08T08:28:03;4.50;;;2.67;;
16824;SDS011;8529;48.108;-1.706;2023-08-08T08:30:31;4.88;;;2.70;;
16824;SDS011;8529;48.108;-1.706;2023-08-08T08:32:58;4.88;;;2.60;;
16824;SDS011;8529;48.108;-1.706;2023-08-08T08:35:26;5.82;;;2.53;;
16824;SDS011;8529;48.108;-1.706;2023-08-08T08:37:54;4.63;;;2.60;;
16824;SDS011;8529;48.108;-1.706;2023-08-08T08:40:21;4.93;;;2.40;;
16824;SDS011;8529;48.108;-1.706;2023-08-08T08:42:48;4.78;;;2.08;;
16824;SDS011;8529;48.108;-1.706;2023-08-08T08:45:16;5.80;;;2.20;;
16824;SDS011;8529;48.108;-1.706;2023-08-08T08:47:45;6.20;;;2.50;;
16824;SDS011;8529;48.108;-1.706;2023-08-08T08:50:13;4.85;;;2.17;;
16824;SDS011;8529;48.108;-1.706;2023-08-08T08:52:44;3.67;;;2.35;;
16824;SDS011;8529;48.108;-1.706;2023-08-08T08:55:11;6.15;;;2.10;;
16824;SDS011;8529;48.108;-1.706;2023-08-08T08:57:38;7.30;;;2.20;;
16824;SDS011;8529;48.108;-1.706;2023-08-08T09:00:06;3.80;;;2.33;;
16824;SDS011;8529;48.108;-1.706;2023-08-08T09:02:34;4.03;;;2.05;;
16824;SDS011;8529;48.108;-1.706;2023-08-08T09:05:01;2.97;;;1.80;;
16824;SDS011;8529;48.108;-1.706;2023-08-08T09:07:30;3.20;;;2.03;;
16824;SDS011;8529;48.108;-1.706;2023-08-08T09:10:00;5.10;;;2.05;;
16824;SDS011;8529;48.108;-1.706;2023-08-08T09:12:28;5.28;;;2.20;;
16824;SDS011;8529;48.108;-1.706;2023-08-08T09:14:56;4.95;;;2.30;;
16824;SDS011;8529;48.108;-1.706;2023-08-08T09:17:24;4.32;;;2.22;;
16824;SDS011;8529;48.108;-1.706;2023-08-08T09:19:52;4.45;;;2.15;;
16824;SDS011;8529;48.108;-1.706;2023-08-08T09:22:20;3.55;;;2.10;;
16824;SDS011;8529;48.108;-1.706;2023-08-08T09:24:48;2.15;;;1.80;;
16824;SDS011;8529;48.108;-1.706;2023-08-08T09:27:17;3.65;;;1.73;;
16824;SDS011;8529;48.108;-1.706;2023-08-08T09:29:45;8.88;;;1.75;;
16824;SDS011;8529;48.108;-1.706;2023-08-08T09:32:12;3.20;;;1.73;;
16824;SDS011;8529;48.108;-1.706;2023-08-08T09:34:41;5.07;;;1.80;;
16824;SDS011;8529;48.108;-1.706;2023-08-08T09:37:08;3.88;;;1.90;;
16824;SDS011;8529;48.108;-1.706;2023-08-08T09:39:36;2.30;;;1.75;;
16824;SDS011;8529;48.108;-1.706;2023-08-08T09:42:03;5.80;;;2.65;;
16824;SDS011;8529;48.108;-1.706;2023-08-08T09:44:32;4.70;;;1.90;;
16824;SDS011;8529;48.108;-1.706;2023-08-08T09:47:00;4.47;;;1.60;;
16824;SDS011;8529;48.108;-1.706;2023-08-08T09:49:28;6.40;;;1.67;;
16824;SDS011;8529;48.108;-1.706;2023-08-08T09:51:57;3.08;;;1.92;;
16824;SDS011;8529;48.108;-1.706;2023-08-08T09:54:25;2.72;;;1.77;;
16824;SDS011;8529;48.108;-1.706;2023-08-08T09:56:53;4.13;;;1.60;;
16824;SDS011;8529;48.108;-1.706;2023-08-08T09:59:20;3.08;;;1.88;;
16824;SDS011;8529;48.108;-1.706;2023-08-08T10:01:48;3.63;;;1.52;;
16824;SDS011;8529;48.108;-1.706;2023-08-08T10:04:17;4.03;;;1.95;;
16824;SDS011;8529;48.108;-1.706;2023-08-08T10:06:45;2.05;;;1.23;;
16824;SDS011;8529;48.108;-1.706;2023-08-08T10:09:12;2.55;;;1.45;;
16824;SDS011;8529;48.108;-1.706;2023-08-08T10:11:39;6.75;;;1.63;;
16824;SDS011;8529;48.108;-1.706;2023-08-08T10:14:08;2.03;;;1.73;;
16824;SDS011;8529;48.108;-1.706;2023-08-08T10:16:36;3.97;;;1.85;;
16824;SDS011;8529;48.108;-1.706;2023-08-08T10:19:05;2.33;;;1.38;;
16824;SDS011;8529;48.108;-1.706;2023-08-08T10:21:34;5.65;;;1.70;;
16824;SDS011;8529;48.108;-1.706;2023-08-08T10:24:02;3.22;;;1.33;;
16824;SDS011;8529;48.108;-1.706;2023-08-08T10:26:29;3.95;;;1.48;;
16824;SDS011;8529;48.108;-1.706;2023-08-08T10:28:57;5.13;;;2.40;;
16824;SDS011;8529;48.108;-1.706;2023-08-08T10:31:24;2.92;;;1.58;;
16824;SDS011;8529;48.108;-1.706;2023-08-08T10:34:00;4.85;;;1.50;;
16824;SDS011;8529;48.108;-1.706;2023-08-08T10:39:25;2.58;;;1.50;;
16824;SDS011;8529;48.108;-1.706;2023-08-08T10:41:52;2.47;;;1.65;;
16824;SDS011;8529;48.108;-1.706;2023-08-08T10:44:23;1.90;;;1.40;;
16824;SDS011;8529;48.108;-1.706;2023-08-08T10:46:50;2.72;;;1.60;;
16824;SDS011;8529;48.108;-1.706;2023-08-08T10:49:18;3.92;;;2.42;;
16824;SDS011;8529;48.108;-1.706;2023-08-08T10:51:46;4.10;;;2.78;;
16824;SDS011;8529;48.108;-1.706;2023-08-08T10:54:14;7.47;;;3.00;;
16824;SDS011;8529;48.108;-1.706;2023-08-08T10:56:48;3.53;;;1.80;;
16824;SDS011;8529;48.108;-1.706;2023-08-08T10:59:17;3.58;;;1.70;;
16824;SDS011;8529;48.108;-1.706;2023-08-08T11:01:45;2.72;;;2.22;;
16824;SDS011;8529;48.108;-1.706;2023-08-08T11:04:13;5.45;;;1.60;;
16824;SDS011;8529;48.108;-1.706;2023-08-08T11:06:40;4.60;;;2.22;;
16824;SDS011;8529;48.108;-1.706;2023-08-08T11:09:07;2.83;;;1.20;;
16824;SDS011;8529;48.108;-1.706;2023-08-08T11:11:38;2.45;;;1.45;;
16824;SDS011;8529;48.108;-1.706;2023-08-08T11:14:10;2.42;;;1.40;;
16824;SDS011;8529;48.108;-1.706;2023-08-08T11:16:37;3.50;;;1.50;;
16824;SDS011;8529;48.108;-1.706;2023-08-08T11:19:05;3.80;;;2.13;;
16824;SDS011;8529;48.108;-1.706;2023-08-08T11:21:35;3.95;;;1.42;;
16824;SDS011;8529;48.108;-1.706;2023-08-08T11:24:03;1.98;;;1.50;;
16824;SDS011;8529;48.108;-1.706;2023-08-08T11:26:31;3.05;;;2.13;;
16824;SDS011;8529;48.108;-1.706;2023-08-08T11:28:58;2.55;;;1.48;;
16824;SDS011;8529;48.108;-1.706;2023-08-08T11:31:27;3.38;;;1.90;;
16824;SDS011;8529;48.108;-1.706;2023-08-08T11:33:55;3.38;;;1.42;;
16824;SDS011;8529;48.108;-1.706;2023-08-08T11:36:22;5.05;;;1.60;;
16824;SDS011;8529;48.108;-1.706;2023-08-08T11:38:50;3.42;;;1.55;;
16824;SDS011;8529;48.108;-1.706;2023-08-08T11:41:18;1.80;;;1.42;;
16824;SDS011;8529;48.108;-1.706;2023-08-08T11:43:46;4.53;;;1.80;;
16824;SDS011;8529;48.108;-1.706;2023-08-08T11:46:14;3.13;;;2.08;;
16824;SDS011;8529;48.108;-1.706;2023-08-08T11:48:42;3.67;;;1.85;;
16824;SDS011;8529;48.108;-1.706;2023-08-08T11:51:09;3.00;;;1.63;;
16824;SDS011;8529;48.108;-1.706;2023-08-08T11:53:47;1.88;;;1.40;;
16824;SDS011;8529;48.108;-1.706;2023-08-08T11:56:14;3.10;;;1.48;;
16824;SDS011;8529;48.108;-1.706;2023-08-08T11:58:41;3.10;;;1.45;;
16824;SDS011;8529;48.108;-1.706;2023-08-08T12:01:09;3.97;;;1.80;;
16824;SDS011;8529;48.108;-1.706;2023-08-08T12:03:39;2.63;;;1.40;;
16824;SDS011;8529;48.108;-1.706;2023-08-08T12:06:12;4.03;;;1.70;;
16824;SDS011;8529;48.108;-1.706;2023-08-08T12:08:40;3.50;;;1.67;;
16824;SDS011;8529;48.108;-1.706;2023-08-08T12:11:08;2.47;;;1.52;;
16824;SDS011;8529;48.108;-1.706;2023-08-08T12:13:36;3.25;;;1.40;;
16824;SDS011;8529;48.108;-1.706;2023-08-08T12:16:04;1.75;;;1.58;;
16824;SDS011;8529;48.108;-1.706;2023-08-08T12:18:32;3.67;;;1.73;;
16824;SDS011;8529;48.108;-1.706;2023-08-08T12:21:00;2.13;;;1.73;;
16824;SDS011;8529;48.108;-1.706;2023-08-08T12:23:28;3.67;;;1.52;;
16824;SDS011;8529;48.108;-1.706;2023-08-08T12:25:56;3.50;;;2.05;;
16824;SDS011;8529;48.108;-1.706;2023-08-08T12:28:24;3.28;;;1.50;;
16824;SDS011;8529;48.108;-1.706;2023-08-08T12:30:51;2.72;;;1.50;;
16824;SDS011;8529;48.108;-1.706;2023-08-08T12:33:18;1.90;;;1.52;;
16824;SDS011;8529;48.108;-1.706;2023-08-08T12:35:46;2.65;;;1.50;;
16824;SDS011;8529;48.108;-1.706;2023-08-08T12:38:14;4.75;;;1.60;;
16824;SDS011;8529;48.108;-1.706;2023-08-08T12:40:42;3.13;;;1.40;;
16824;SDS011;8529;48.108;-1.706;2023-08-08T12:43:10;3.40;;;1.40;;
16824;SDS011;8529;48.108;-1.706;2023-08-08T12:45:42;2.08;;;1.30;;
16824;SDS011;8529;48.108;-1.706;2023-08-08T12:48:09;2.50;;;1.42;;
16824;SDS011;8529;48.108;-1.706;2023-08-08T12:50:36;2.78;;;1.33;;
16824;SDS011;8529;48.108;-1.706;2023-08-08T12:53:04;2.85;;;1.52;;
16824;SDS011;8529;48.108;-1.706;2023-08-08T12:55:31;2.60;;;1.67;;
16824;SDS011;8529;48.108;-1.706;2023-08-08T12:57:59;2.35;;;1.45;;
16824;SDS011;8529;48.108;-1.706;2023-08-08T13:00:26;5.45;;;2.30;;
16824;SDS011;8529;48.108;-1.706;2023-08-08T13:02:54;3.70;;;1.50;;
16824;SDS011;8529;48.108;-1.706;2023-08-08T13:05:21;2.60;;;1.90;;
16824;SDS011;8529;48.108;-1.706;2023-08-08T13:07:48;3.50;;;1.58;;
16824;SDS011;8529;48.108;-1.706;2023-08-08T13:10:15;2.90;;;1.50;;
16824;SDS011;8529;48.108;-1.706;2023-08-08T13:12:44;4.28;;;1.58;;
16824;SDS011;8529;48.108;-1.706;2023-08-08T13:15:13;3.00;;;1.33;;
16824;SDS011;8529;48.108;-1.706;2023-08-08T13:17:40;4.00;;;1.50;;
16824;SDS011;8529;48.108;-1.706;2023-08-08T13:20:07;3.83;;;1.58;;
16824;SDS011;8529;48.108;-1.706;2023-08-08T13:22:35;3.72;;;1.63;;
16824;SDS011;8529;48.108;-1.706;2023-08-08T13:25:03;2.08;;;1.67;;
16824;SDS011;8529;48.108;-1.706;2023-08-08T13:27:30;1.58;;;1.48;;
16824;SDS011;8529;48.108;-1.706;2023-08-08T13:29:57;3.70;;;1.83;;
16824;SDS011;8529;48.108;-1.706;2023-08-08T13:32:26;4.88;;;1.80;;
16824;SDS011;8529;48.108;-1.706;2023-08-08T13:34:53;3.35;;;1.75;;
16824;SDS011;8529;48.108;-1.706;2023-08-08T13:37:20;3.47;;;1.85;;
16824;SDS011;8529;48.108;-1.706;2023-08-08T13:39:47;3.40;;;2.00;;
16824;SDS011;8529;48.108;-1.706;2023-08-08T13:42:14;4.88;;;1.60;;
16824;SDS011;8529;48.108;-1.706;2023-08-08T13:44:42;3.03;;;1.70;;
16824;SDS011;8529;48.108;-1.706;2023-08-08T13:47:09;3.47;;;1.67;;
16824;SDS011;8529;48.108;-1.706;2023-08-08T13:49:37;2.70;;;1.55;;
16824;SDS011;8529;48.108;-1.706;2023-08-08T13:52:05;2.60;;;1.38;;
16824;SDS011;8529;48.108;-1.706;2023-08-08T13:54:33;4.15;;;2.13;;
16824;SDS011;8529;48.108;-1.706;2023-08-08T13:57:00;6.75;;;1.73;;
16824;SDS011;8529;48.108;-1.706;2023-08-08T13:59:27;4.63;;;1.55;;
16824;SDS011;8529;48.108;-1.706;2023-08-08T14:01:54;3.67;;;1.90;;
16824;SDS011;8529;48.108;-1.706;2023-08-08T14:04:21;3.30;;;1.60;;
16824;SDS011;8529;48.108;-1.706;2023-08-08T14:06:50;2.72;;;1.60;;
16824;SDS011;8529;48.108;-1.706;2023-08-08T14:09:17;4.28;;;2.22;;
16824;SDS011;8529;48.108;-1.706;2023-08-08T14:11:44;3.05;;;1.45;;
16824;SDS011;8529;48.108;-1.706;2023-08-08T14:14:11;3.10;;;1.40;;
16824;SDS011;8529;48.108;-1.706;2023-08-08T14:16:39;2.42;;;1.70;;
16824;SDS011;8529;48.108;-1.706;2023-08-08T14:19:06;2.28;;;1.77;;
16824;SDS011;8529;48.108;-1.706;2023-08-08T14:21:33;1.80;;;1.58;;
16824;SDS011;8529;48.108;-1.706;2023-08-08T14:24:02;2.63;;;1.58;;
16824;SDS011;8529;48.108;-1.706;2023-08-08T14:26:29;2.17;;;1.63;;
16824;SDS011;8529;48.108;-1.706;2023-08-08T14:28:56;3.30;;;1.58;;
16824;SDS011;8529;48.108;-1.706;2023-08-08T14:31:24;4.63;;;1.70;;
16824;SDS011;8529;48.108;-1.706;2023-08-08T14:33:51;2.40;;;1.35;;
16824;SDS011;8529;48.108;-1.706;2023-08-08T14:36:18;2.55;;;1.60;;
16824;SDS011;8529;48.108;-1.706;2023-08-08T14:38:45;5.70;;;2.05;;
16824;SDS011;8529;48.108;-1.706;2023-08-08T14:41:14;2.22;;;1.75;;
16824;SDS011;8529;48.108;-1.706;2023-08-08T14:43:41;3.45;;;1.80;;
16824;SDS011;8529;48.108;-1.706;2023-08-08T14:46:08;2.95;;;1.67;;
16824;SDS011;8529;48.108;-1.706;2023-08-08T14:48:35;1.90;;;1.45;;
16824;SDS011;8529;48.108;-1.706;2023-08-08T14:51:02;2.33;;;1.70;;
16824;SDS011;8529;48.108;-1.706;2023-08-08T14:53:30;2.42;;;1.52;;